Time;durP1;ratioP1;P1;durP2;ratioP2;P2;SDS_P1;SDS_P2;PMS_P1;PMS_P2;Temp;Humidity;BMP_temperature;BMP_pressure;BME280_temperature;BME280_humidity;BME280_pressure;Samples;Min_cycle;Max_cycle;Signal;HPM_P1;HPM_P2
2023/04/01 00:01:56;;;;;;;;;0.00;0.00;;;;;12.73;64.78;99833.06;5040687;28;47078;-71
2023/04/01 00:04:21;;;;;;;;;1.67;1.33;;;;;12.68;64.34;99825.63;5059057;28;45281;-71
2023/04/01 00:06:47;;;;;;;;;2.00;1.00;;;;;12.79;64.07;99835.00;5058075;28;45258;-72
2023/04/01 00:09:13;;;;;;;;;0.00;0.00;;;;;12.84;64.70;99846.00;5041394;28;45537;-72
2023/04/01 00:11:38;;;;;;;;;1.50;1.50;;;;;11.91;64.85;99701.47;5059062;28;46568;-73
2023/04/01 00:14:04;;;;;;;;;0.00;0.00;;;;;12.79;64.95;99848.34;5059035;28;45523;-72
2023/04/01 00:16:33;;;;;;;;;2.00;0.67;;;;;12.78;65.04;99846.69;5041198;28;45467;-72
2023/04/01 00:18:59;;;;;;;;;1.00;1.00;;;;;12.77;64.91;99847.69;5058737;28;45573;-71
2023/04/01 00:21:26;;;;;;;;;0.00;0.00;;;;;12.62;64.96;99815.69;5058552;28;45953;-71
2023/04/01 00:23:51;;;;;;;;;1.00;0.00;;;;;12.52;64.76;99790.25;5058885;28;45368;-71
2023/04/01 00:26:20;;;;;;;;;0.33;0.33;;;;;12.94;64.81;99857.22;5058749;28;45363;-72
2023/04/01 00:28:45;;;;;;;;;1.00;0.00;;;;;12.81;64.71;99835.66;5041122;28;46575;-72
2023/04/01 00:31:11;;;;;;;;;2.33;0.67;;;;;12.81;64.69;99854.31;5040376;28;46625;-70
2023/04/01 00:33:43;;;;;;;;;0.67;0.00;;;;;12.72;64.72;99826.09;5058619;28;45328;-72
2023/04/01 00:36:11;;;;;;;;;1.33;0.33;;;;;11.83;64.91;99684.56;5040704;28;45491;-70
2023/04/01 00:38:37;;;;;;;;;1.00;1.00;;;;;12.54;64.89;99809.56;5040805;28;45634;-71
2023/04/01 00:41:03;;;;;;;;;0.00;0.00;;;;;12.74;64.78;99829.41;5058700;28;46077;-71
2023/04/01 00:43:30;;;;;;;;;1.67;0.00;;;;;12.85;65.38;99860.97;5058441;28;45546;-73
2023/04/01 00:45:55;;;;;;;;;1.00;1.00;;;;;12.52;64.42;99800.94;5058292;28;45447;-71
2023/04/01 00:48:25;;;;;;;;;1.33;1.00;;;;;12.90;65.18;99865.78;5058430;28;45246;-71
2023/04/01 00:50:56;;;;;;;;;1.67;0.00;;;;;12.79;64.57;99856.34;5057679;28;45959;-71
2023/04/01 00:53:23;;;;;;;;;0.00;0.00;;;;;12.83;65.06;99867.50;5058041;28;45342;-71
2023/04/01 00:56:03;;;;;;;;;3.00;2.00;;;;;12.67;64.66;99831.13;5058299;28;45294;-72
2023/04/01 00:58:32;;;;;;;;;2.67;0.00;;;;;12.82;64.84;99864.00;5058349;28;45522;-72
2023/04/01 01:01:00;;;;;;;;;0.67;0.67;;;;;12.54;64.98;99764.25;5058009;28;46275;-72
2023/04/01 01:03:25;;;;;;;;;0.00;0.00;;;;;12.75;65.09;99839.88;5059324;28;45302;-71
2023/04/01 01:06:10;;;;;;;;;0.00;0.00;;;;;12.90;64.77;99852.44;5041741;28;45325;-72
2023/04/01 01:08:38;;;;;;;;;0.00;0.00;;;;;12.90;65.14;99863.09;5058852;28;45507;-71
2023/04/01 01:11:08;;;;;;;;;0.00;0.00;;;;;12.84;65.25;99840.66;5057905;28;45570;-72
2023/04/01 01:13:45;;;;;;;;;1.67;0.33;;;;;12.67;65.42;99815.97;5058131;28;45463;-71
2023/04/01 01:16:35;;;;;;;;;2.00;2.00;;;;;12.90;65.72;99852.44;5058678;28;45311;-72
2023/04/01 01:19:29;;;;;;;;;2.00;0.00;;;;;12.84;65.90;99838.00;5038461;28;45563;-71
2023/04/01 01:22:16;;;;;;;;;0.67;0.67;;;;;12.74;65.88;99845.41;5057510;28;45588;-70
2023/04/01 01:25:18;;;;;;;;;2.00;2.00;;;;;12.53;66.28;99805.25;5057692;28;45436;-72
2023/04/01 01:27:56;;;;;;;;;1.00;1.00;;;;;12.74;66.00;99829.41;5057672;28;45312;-71
2023/04/01 01:30:30;;;;;;;;;2.00;1.00;;;;;12.78;65.26;99844.84;5058080;28;45349;-72
2023/04/01 01:33:01;;;;;;;;;1.00;1.00;;;;;12.81;65.57;99849.00;5039419;28;48038;-72
2023/04/01 01:35:46;;;;;;;;;0.00;0.00;;;;;12.80;64.88;99853.50;5057335;28;45438;-70
2023/04/01 01:38:19;;;;;;;;;2.00;1.00;;;;;12.00;64.78;99716.38;5057844;28;45435;-71
2023/04/01 01:40:51;;;;;;;;;1.00;1.00;;;;;12.81;65.33;99859.66;5057734;28;45279;-71
2023/04/01 01:43:22;;;;;;;;;1.00;1.00;;;;;11.92;65.97;99721.78;5056904;28;45643;-71
2023/04/01 01:45:58;;;;;;;;;0.00;0.00;;;;;12.68;66.12;99846.94;5057243;28;45558;-70
2023/04/01 01:48:26;;;;;;;;;0.00;0.00;;;;;12.40;66.53;99812.00;5057426;28;45324;-73
2023/04/01 01:50:52;;;;;;;;;1.00;1.00;;;;;12.60;67.61;99862.16;5057197;28;45566;-71
2023/04/01 01:53:18;;;;;;;;;1.00;0.00;;;;;12.00;67.88;99780.31;5057131;28;45986;-70
2023/04/01 01:55:46;;;;;;;;;2.67;0.00;;;;;12.51;67.91;99853.41;5038923;28;52005;-71
2023/04/01 01:58:24;;;;;;;;;1.00;0.00;;;;;11.98;67.98;99766.34;5057583;28;45346;-71
2023/04/01 02:00:55;;;;;;;;;0.67;0.67;;;;;11.76;67.85;99731.50;5057675;28;45438;-70
2023/04/01 02:03:22;;;;;;;;;0.00;0.00;;;;;12.63;67.96;99872.50;5057156;28;45762;-72
2023/04/01 02:05:51;;;;;;;;;1.67;0.00;;;;;12.26;67.50;99817.28;5039239;28;46606;-72
2023/04/01 02:08:25;;;;;;;;;1.33;1.00;;;;;12.20;67.86;99794.81;5057278;28;45229;-71
2023/04/01 02:11:03;;;;;;;;;1.67;0.00;;;;;12.61;67.32;99890.50;5057539;28;45273;-70
2023/04/01 02:13:40;;;;;;;;;1.67;0.00;;;;;11.73;68.00;99742.50;5056793;28;46265;-72
2023/04/01 02:16:13;;;;;;;;;0.00;0.00;;;;;12.60;67.52;99872.84;5057182;28;45380;-72
2023/04/01 02:18:41;;;;;;;;;1.00;1.00;;;;;12.27;67.95;99830.44;5057188;28;45346;-70
2023/04/01 02:21:07;;;;;;;;;2.00;1.00;;;;;12.27;68.12;99827.78;5038838;28;45543;-71
2023/04/01 02:23:36;;;;;;;;;2.00;1.00;;;;;12.49;67.47;99856.25;5057097;28;45801;-71
2023/04/01 02:26:05;;;;;;;;;1.00;1.00;;;;;12.55;67.09;99860.03;5057189;28;45457;-70
2023/04/01 02:28:32;;;;;;;;;2.67;1.00;;;;;12.43;67.11;99819.66;5039202;28;45325;-70
2023/04/01 02:31:00;;;;;;;;;1.00;1.00;;;;;12.62;66.80;99873.50;5042571;28;45404;-70
2023/04/01 02:33:27;;;;;;;;;1.33;0.33;;;;;12.69;65.77;99877.13;5060315;28;46501;-72
2023/04/01 02:35:52;;;;;;;;;3.00;0.67;;;;;12.57;66.07;99862.53;5060112;28;45600;-73
2023/04/01 02:38:18;;;;;;;;;1.00;1.00;;;;;12.69;65.39;99879.78;5060343;28;48056;-71
2023/04/01 02:40:49;;;;;;;;;3.67;0.00;;;;;12.70;65.32;99882.28;5060764;28;45446;-70
2023/04/01 02:43:16;;;;;;;;;0.00;0.00;;;;;12.62;64.76;99868.19;5041926;28;48524;-71
2023/04/01 02:45:42;;;;;;;;;2.00;1.00;;;;;12.32;64.53;99830.72;5044375;28;46198;-71
2023/04/01 02:48:07;;;;;;;;;1.67;1.67;;;;;11.96;64.93;99779.00;5062942;28;45381;-73
2023/04/01 02:50:33;;;;;;;;;1.00;1.00;;;;;12.13;64.75;99802.72;5061517;28;45231;-70
2023/04/01 02:52:58;;;;;;;;;1.00;0.00;;;;;12.22;64.48;99811.50;5060250;28;47123;-72
2023/04/01 02:55:23;;;;;;;;;2.00;1.00;;;;;12.58;64.63;99872.19;5060000;28;45380;-72
2023/04/01 02:57:49;;;;;;;;;0.00;0.00;;;;;12.77;64.34;99890.38;5059784;28;54751;-71
2023/04/01 03:00:15;;;;;;;;;0.67;0.67;;;;;12.79;64.24;99907.03;5060365;28;45250;-71
2023/04/01 03:02:40;;;;;;;;;0.00;0.00;;;;;12.65;64.32;99881.16;5059993;28;45556;-72
2023/04/01 03:05:07;;;;;;;;;0.00;0.00;;;;;12.50;63.74;99854.44;5059434;28;45246;-71
2023/04/01 03:07:32;;;;;;;;;0.00;0.00;;;;;12.38;63.53;99826.50;5060243;28;45550;-72
2023/04/01 03:09:57;;;;;;;;;0.00;0.00;;;;;12.77;63.72;99922.38;5041912;28;45539;-71
2023/04/01 03:12:23;;;;;;;;;0.00;0.00;;;;;12.72;63.35;99898.91;5059712;28;45613;-71
2023/04/01 03:14:48;;;;;;;;;1.00;0.00;;;;;12.70;63.75;99895.59;5060140;28;45305;-70
2023/04/01 03:17:14;;;;;;;;;1.33;0.00;;;;;12.75;63.55;99909.22;5059954;28;45416;-72
2023/04/01 03:19:39;;;;;;;;;0.00;0.00;;;;;12.72;63.79;99898.09;5060353;28;45313;-70
2023/04/01 03:22:05;;;;;;;;;0.00;0.00;;;;;12.59;63.62;99866.69;5059379;28;45929;-70
2023/04/01 03:24:30;;;;;;;;;0.00;0.00;;;;;12.80;63.69;99906.00;5059845;28;45253;-72
2023/04/01 03:26:55;;;;;;;;;0.00;0.00;;;;;12.78;63.99;99908.03;5059638;28;45594;-71
2023/04/01 03:29:21;;;;;;;;;0.00;0.00;;;;;12.51;64.07;99871.25;5059812;28;45443;-71
2023/04/01 03:31:46;;;;;;;;;1.00;1.00;;;;;12.74;64.09;99909.41;5059513;28;46370;-69
2023/04/01 03:34:11;;;;;;;;;4.00;1.67;;;;;12.73;64.08;99918.41;5040942;28;50493;-70
2023/04/01 03:36:37;;;;;;;;;0.33;0.00;;;;;12.74;64.68;99920.91;5059506;28;45217;-71
2023/04/01 03:39:03;;;;;;;;;0.00;0.00;;;;;12.72;65.00;99943.44;5059676;28;45416;-73
2023/04/01 03:41:29;;;;;;;;;2.00;0.00;;;;;12.71;64.50;99929.25;5058215;28;45750;-71
2023/04/01 03:43:54;;;;;;;;;1.33;1.33;;;;;12.75;64.33;99919.06;5041180;28;45360;-71
2023/04/01 03:46:20;;;;;;;;;2.33;1.00;;;;;11.89;65.09;99789.56;5041439;28;45214;-71
2023/04/01 03:48:46;;;;;;;;;3.67;1.00;;;;;12.70;65.05;99918.78;5041464;28;45496;-70
2023/04/01 03:51:11;;;;;;;;;0.25;0.00;;;;;11.89;65.11;99794.88;5058551;28;45852;-73
2023/04/01 03:53:37;;;;;;;;;0.00;0.00;;;;;12.23;64.50;99839.78;5059233;28;45494;-71
2023/04/01 03:56:07;;;;;;;;;2.00;1.67;;;;;12.62;63.78;99924.19;5041178;28;45509;-73
2023/04/01 03:58:32;;;;;;;;;2.33;1.00;;;;;12.61;64.01;99911.81;5059376;28;45305;-71
2023/04/01 04:00:57;;;;;;;;;0.00;0.00;;;;;12.27;63.89;99857.09;5058833;28;46130;-71
2023/04/01 04:03:23;;;;;;;;;4.33;0.00;;;;;12.16;63.18;99839.66;5040617;28;46113;-75
2023/04/01 04:05:49;;;;;;;;;0.00;0.00;;;;;12.54;63.15;99900.22;5040192;28;45274;-72
2023/04/01 04:08:15;;;;;;;;;3.67;1.00;;;;;12.76;63.29;99931.38;5059355;28;45254;-71
2023/04/01 04:10:41;;;;;;;;;0.33;0.00;;;;;12.76;63.14;99931.38;5058951;28;45672;-73
2023/04/01 04:13:06;;;;;;;;;1.67;0.33;;;;;12.78;63.87;99940.03;5040628;28;46499;-72
2023/04/01 04:16:25;;;;;;;;;3.00;1.00;;;;;12.80;63.55;99938.03;5057264;28;45331;-71
2023/04/01 04:18:51;;;;;;;;;1.33;0.00;;;;;12.78;62.89;99929.38;5057315;28;45529;-73
2023/04/01 04:21:16;;;;;;;;;0.00;0.00;;;;;12.78;63.25;99956.03;5055239;28;47207;-73
2023/04/01 04:23:42;;;;;;;;;2.00;0.67;;;;;12.80;63.48;99940.69;5040002;28;45936;-71
2023/04/01 04:26:10;;;;;;;;;1.67;1.00;;;;;12.67;63.07;99935.13;5039323;28;45332;-71
2023/04/01 04:28:36;;;;;;;;;2.00;1.00;;;;;12.78;63.13;99954.22;5060488;28;45499;-71
2023/04/01 04:31:02;;;;;;;;;2.00;0.67;;;;;12.79;63.56;99960.38;5043226;28;48920;-70
2023/04/01 04:33:30;;;;;;;;;0.67;0.67;;;;;12.68;63.05;99937.63;5057427;28;45527;-71
2023/04/01 04:35:57;;;;;;;;;0.00;0.00;;;;;12.36;63.05;99897.84;5058424;28;45391;-72
2023/04/01 04:38:22;;;;;;;;;0.00;0.00;;;;;12.76;62.85;99953.56;5058637;28;45471;-72
2023/04/01 04:40:48;;;;;;;;;1.00;1.00;;;;;11.99;62.54;99827.44;5058315;28;45526;-70
2023/04/01 04:43:15;;;;;;;;;2.00;2.00;;;;;12.77;62.99;99959.72;5040338;28;45238;-71
2023/04/01 04:45:41;;;;;;;;;1.00;0.00;;;;;12.76;62.75;99974.06;5058661;28;45377;-72
2023/04/01 04:48:18;;;;;;;;;3.00;2.00;;;;;12.53;62.50;99933.22;5058498;28;45621;-72
2023/04/01 04:50:44;;;;;;;;;2.00;1.00;;;;;12.76;62.86;99966.91;5057990;28;46046;-72
2023/04/01 04:53:11;;;;;;;;;1.00;1.00;;;;;12.73;62.71;99953.91;5058021;28;45527;-72
2023/04/01 04:55:36;;;;;;;;;2.33;0.00;;;;;12.11;62.82;99847.34;5040084;28;45279;-72
2023/04/01 04:58:02;;;;;;;;;1.00;1.00;;;;;12.79;62.67;99958.53;5058260;28;45486;-72
2023/04/01 05:00:27;;;;;;;;;1.00;1.00;;;;;12.70;62.41;99951.59;5040262;28;47528;-72
2023/04/01 05:02:52;;;;;;;;;2.00;1.00;;;;;12.25;62.22;99888.41;5058136;28;45462;-72
2023/04/01 05:05:18;;;;;;;;;1.67;0.00;;;;;12.16;62.03;99889.44;5057694;28;45250;-72
2023/04/01 05:07:43;;;;;;;;;0.33;0.33;;;;;12.73;62.12;99979.75;5058289;28;45232;-71
2023/04/01 05:10:09;;;;;;;;;1.33;1.00;;;;;11.93;61.81;99837.97;5058386;28;45340;-72
2023/04/01 05:12:37;;;;;;;;;2.33;1.00;;;;;12.76;61.73;99976.72;5040245;28;45380;-71
2023/04/01 05:15:05;;;;;;;;;2.67;0.00;;;;;12.76;61.63;99982.91;5058200;28;45527;-72
2023/04/01 05:17:30;;;;;;;;;1.00;0.00;;;;;12.32;61.92;99918.69;5039891;28;45317;-71
2023/04/01 05:19:55;;;;;;;;;1.00;0.00;;;;;11.69;61.76;99809.59;5039236;28;45841;-74
2023/04/01 05:22:21;;;;;;;;;0.67;0.67;;;;;12.45;61.69;99929.63;5057770;28;45265;-71
2023/04/01 05:24:46;;;;;;;;;2.00;0.00;;;;;12.69;61.89;99962.47;5057699;28;49699;-71
2023/04/01 05:27:11;;;;;;;;;2.00;1.00;;;;;11.96;61.67;99846.44;5039821;28;45302;-73
2023/04/01 05:29:37;;;;;;;;;1.00;1.00;;;;;12.81;61.54;99990.38;5057446;28;48136;-72
2023/04/01 05:32:02;;;;;;;;;1.00;1.00;;;;;12.83;61.68;99995.56;5057697;28;45167;-71
2023/04/01 05:34:27;;;;;;;;;0.67;0.67;;;;;12.84;61.73;99998.03;5057703;28;45232;-71
2023/04/01 05:36:53;;;;;;;;;1.00;0.00;;;;;12.38;61.85;99903.81;5057697;28;45535;-71
2023/04/01 05:39:18;;;;;;;;;2.00;0.00;;;;;12.87;61.58;100000.34;5057215;28;46299;-72
2023/04/01 05:41:43;;;;;;;;;0.00;0.00;;;;;12.84;61.87;100002.53;5039564;28;45253;-72
2023/04/01 05:44:13;;;;;;;;;0.00;0.00;;;;;12.80;61.86;100002.88;5058538;28;57617;-71
2023/04/01 05:46:38;;;;;;;;;0.00;0.00;;;;;12.53;61.61;99967.88;5057687;28;45496;-72
2023/04/01 05:49:04;;;;;;;;;2.00;2.00;;;;;12.60;62.06;100007.00;5057138;28;46600;-71
2023/04/01 05:51:29;;;;;;;;;1.00;0.00;;;;;12.59;62.38;100009.84;5057143;28;45356;-71
2023/04/01 05:53:54;;;;;;;;;1.33;0.00;;;;;12.63;61.92;100028.00;5039303;28;45481;-72
2023/04/01 05:56:20;;;;;;;;;0.00;0.00;;;;;12.32;62.15;99948.00;5039576;28;45571;-70
2023/04/01 05:58:51;;;;;;;;;0.00;0.00;;;;;12.73;61.77;100022.44;5056454;28;47221;-71
2023/04/01 06:01:16;;;;;;;;;0.00;0.00;;;;;12.73;62.01;100025.09;5039331;28;45396;-72
2023/04/01 06:03:42;;;;;;;;;0.00;0.00;;;;;11.86;61.69;99875.13;5056589;28;45482;-70
2023/04/01 06:06:15;;;;;;;;;4.00;0.00;;;;;12.69;61.89;100021.13;5057280;28;45548;-73
2023/04/01 06:08:42;;;;;;;;;0.00;0.00;;;;;12.52;61.11;99993.72;5055441;28;46569;-72
2023/04/01 06:11:28;;;;;;;;;2.00;0.67;;;;;12.22;61.01;99947.41;5062393;28;46753;-73
2023/04/01 06:14:19;;;;;;;;;0.67;0.67;;;;;12.78;61.41;100031.56;5056823;28;45439;-73
2023/04/01 06:16:53;;;;;;;;;3.00;1.33;;;;;12.83;61.11;100033.72;5044139;28;45453;-71
2023/04/01 06:19:51;;;;;;;;;1.00;1.00;;;;;12.79;61.44;100040.41;5036723;28;45595;-75
2023/04/01 06:23:00;;;;;;;;;2.00;1.00;;;;;12.86;61.14;100045.88;5034825;28;45429;-72
2023/04/01 06:25:44;;;;;;;;;2.00;0.33;;;;;12.84;60.74;100046.06;5019583;28;45412;-71
2023/04/01 06:28:31;;;;;;;;;1.00;1.00;;;;;12.87;60.54;100056.38;5042913;28;46198;-72
2023/04/01 06:31:10;;;;;;;;;0.00;0.00;;;;;12.91;60.54;100047.00;5046558;28;45383;-72
2023/04/01 06:33:42;;;;;;;;;1.00;1.00;;;;;12.93;59.94;100050.31;5041952;28;45570;-71
2023/04/01 06:36:13;;;;;;;;;1.00;1.00;;;;;12.93;59.70;100054.81;5056602;28;45479;-72
2023/04/01 06:38:57;;;;;;;;;1.00;1.00;;;;;12.81;59.45;100030.38;5040412;28;45486;-71
2023/04/01 06:42:01;;;;;;;;;0.00;0.00;;;;;13.02;59.51;100054.63;5051313;28;46649;-71
2023/04/01 06:45:02;;;;;;;;;2.00;0.00;;;;;13.05;59.41;100058.78;4975016;28;45564;-73
2023/04/01 06:47:58;;;;;;;;;2.00;1.00;;;;;13.08;59.14;100061.91;5051413;28;45407;-72
2023/04/01 06:50:45;;;;;;;;;1.00;0.00;;;;;13.06;59.02;100061.25;5049457;28;45348;-73
2023/04/01 06:53:49;;;;;;;;;1.33;0.00;;;;;13.06;58.73;100060.44;5035607;28;47571;-71
2023/04/01 06:56:18;;;;;;;;;1.00;0.00;;;;;12.86;58.96;100044.03;5044254;28;45555;-72
2023/04/01 06:58:56;;;;;;;;;2.00;1.00;;;;;13.14;58.97;100072.88;5030648;28;45377;-72
2023/04/01 07:01:37;;;;;;;;;1.00;0.00;;;;;12.75;58.74;99994.56;5037146;28;45471;-77
2023/04/01 07:04:10;;;;;;;;;0.00;0.00;;;;;13.23;58.45;100079.88;5035501;28;47528;-75
2023/04/01 07:06:43;;;;;;;;;0.00;0.00;;;;;12.88;58.62;99983.34;5056015;28;45396;-71
2023/04/01 07:09:20;;;;;;;;;0.00;0.00;;;;;13.54;57.78;100080.63;5056029;28;45363;-73
2023/04/01 07:11:46;;;;;;;;;0.50;0.00;;;;;13.68;57.41;100090.53;5055776;28;45576;-73
2023/04/01 07:14:28;;;;;;;;;0.33;0.33;;;;;13.68;56.96;100049.63;5056392;28;46367;-73
2023/04/01 07:17:08;;;;;;;;;1.67;0.67;;;;;13.53;56.06;100014.88;5060016;28;45263;-71
2023/04/01 07:19:42;;;;;;;;;0.33;0.00;;;;;13.93;56.24;100074.28;5056192;28;45329;-71
2023/04/01 07:22:32;;;;;;;;;0.00;0.00;;;;;13.92;55.83;100060.06;5052145;28;45595;-75
2023/04/01 07:25:05;;;;;;;;;0.67;0.00;;;;;14.22;55.20;100066.28;5060768;28;45731;-74
2023/04/01 07:27:30;;;;;;;;;0.00;0.00;;;;;14.25;55.26;100049.88;5059763;28;45622;-74
2023/04/01 07:29:56;;;;;;;;;0.33;0.33;;;;;14.88;53.71;100079.72;5059821;28;45290;-74
2023/04/01 07:32:41;;;;;;;;;3.67;0.00;;;;;15.13;53.04;100080.19;5059497;28;45618;-71
2023/04/01 07:35:13;;;;;;;;;0.75;0.00;;;;;15.79;51.64;100080.84;5052223;28;46468;-72
2023/04/01 07:37:53;;;;;;;;;0.00;0.00;;;;;16.00;50.02;100086.16;5041218;28;45538;-72
2023/04/01 07:40:32;;;;;;;;;0.25;0.00;;;;;16.09;50.03;100087.69;5058658;28;45432;-74
2023/04/01 07:43:09;;;;;;;;;1.33;1.33;;;;;16.31;49.27;100095.66;5059062;28;45544;-71
2023/04/01 07:45:52;;;;;;;;;1.25;0.00;;;;;16.49;48.77;100085.25;5040923;28;46059;-72
2023/04/01 07:48:23;;;;;;;;;1.00;1.00;;;;;16.40;48.95;100086.44;5049511;28;46787;-70
2023/04/01 07:51:00;;;;;;;;;0.00;0.00;;;;;16.26;48.90;100090.06;5056185;28;45254;-72
2023/04/01 07:53:37;;;;;;;;;0.00;0.00;;;;;15.50;49.08;99955.91;5057615;28;45486;-70
2023/04/01 07:56:15;;;;;;;;;5.67;4.00;;;;;16.13;48.71;100056.78;5057851;28;47853;-70
2023/04/01 07:59:00;;;;;;;;;0.00;0.00;;;;;16.39;48.61;100106.22;5059230;28;45411;-69
2023/04/01 08:01:54;;;;;;;;;1.00;1.00;;;;;16.45;48.70;100100.09;5059289;28;45524;-70
2023/04/01 08:04:49;;;;;;;;;0.00;0.00;;;;;16.56;48.42;100104.88;5057345;28;45547;-68
2023/04/01 08:07:23;;;;;;;;;0.50;0.00;;;;;15.75;48.24;99988.47;5039861;28;45935;-69
2023/04/01 08:10:10;;;;;;;;;1.33;0.00;;;;;16.82;47.55;100111.44;5046016;28;45476;-72
2023/04/01 08:13:04;;;;;;;;;0.00;0.00;;;;;16.77;46.50;99966.25;5068548;28;45307;-72
2023/04/01 08:15:46;;;;;;;;;2.75;1.75;;;;;18.50;44.69;100113.94;5057082;28;45427;-71
2023/04/01 08:18:15;;;;;;;;;0.25;0.25;;;;;18.68;43.30;100103.34;5058974;28;47526;-71
2023/04/01 08:21:00;;;;;;;;;0.33;0.33;;;;;18.61;42.93;100117.81;5040686;28;45923;-73
2023/04/01 08:23:33;;;;;;;;;1.00;0.00;;;;;18.34;43.23;100098.22;5032937;28;45904;-74
2023/04/01 08:26:01;;;;;;;;;0.33;0.00;;;;;18.28;43.30;100116.03;5040646;28;45372;-79
2023/04/01 08:28:35;;;;;;;;;1.75;1.75;;;;;18.17;43.13;100122.03;5059492;28;46571;-73
2023/04/01 08:31:12;;;;;;;;;0.00;0.00;;;;;17.30;43.28;100004.78;5058831;28;45599;-72
2023/04/01 08:33:39;;;;;;;;;2.50;1.00;;;;;16.91;43.83;99962.59;5039138;28;45482;-73
2023/04/01 08:36:11;;;;;;;;;0.50;0.50;;;;;17.85;43.95;100143.38;5058792;28;45369;-74
2023/04/01 08:39:03;;;;;;;;;2.00;2.00;;;;;17.73;43.81;100126.19;5058595;28;46433;-73
2023/04/01 08:41:47;;;;;;;;;1.33;0.67;;;;;17.84;43.14;100122.91;5040498;28;45365;-72
2023/04/01 08:44:24;;;;;;;;;0.67;0.00;;;;;17.77;43.04;100135.50;5048882;28;45316;-74
2023/04/01 08:47:08;;;;;;;;;3.67;1.67;;;;;17.61;43.44;100117.88;5058109;28;45242;-78
2023/04/01 08:49:52;;;;;;;;;0.00;0.00;;;;;17.59;44.09;100128.00;5044476;28;46834;-72
2023/04/01 08:52:36;;;;;;;;;2.67;1.67;;;;;17.68;44.18;100123.31;5044069;28;45561;-73
2023/04/01 08:55:19;;;;;;;;;0.50;0.00;;;;;17.74;43.75;100121.66;5022375;28;45422;-72
2023/04/01 08:58:01;;;;;;;;;0.00;0.00;;;;;17.24;43.23;100035.97;5038788;28;45367;-73
2023/04/01 09:00:29;;;;;;;;;2.00;2.00;;;;;18.02;43.32;100141.13;5038562;28;46795;-74
2023/04/01 09:03:13;;;;;;;;;2.00;2.00;;;;;17.91;43.45;100112.97;5022946;28;45580;-72
2023/04/01 09:06:10;;;;;;;;;1.00;1.00;;;;;18.07;42.94;100130.56;5039975;28;45407;-72
2023/04/01 09:08:57;;;;;;;;;1.00;0.00;;;;;18.04;43.19;100143.59;5058672;28;45333;-71
2023/04/01 09:11:41;;;;;;;;;2.00;2.00;;;;;18.22;43.35;100124.97;5058989;28;46465;-75
2023/04/01 09:14:24;;;;;;;;;2.00;0.75;;;;;18.16;42.43;100082.72;5058154;28;45345;-73
2023/04/01 09:17:27;;;;;;;;;1.00;1.00;;;;;18.86;42.46;100129.59;5058282;28;45852;-77
2023/04/01 09:20:24;;;;;;;;;1.33;1.00;;;;;19.61;41.28;100130.66;5036178;28;45588;-73
2023/04/01 09:23:21;;;;;;;;;0.25;0.00;;;;;19.92;40.11;100131.69;5053357;28;45895;-75
2023/04/01 09:26:17;;;;;;;;;0.00;0.00;;;;;19.72;39.67;100127.28;5037478;28;45291;-71
2023/04/01 09:29:20;;;;;;;;;0.75;0.00;;;;;19.51;40.29;100140.25;5059865;28;45266;-71
2023/04/01 09:31:55;;;;;;;;;0.00;0.00;;;;;19.18;41.20;100094.63;5058589;28;45566;-72
2023/04/01 09:34:45;;;;;;;;;0.25;0.25;;;;;19.74;40.08;100127.88;5057996;28;45568;-71
2023/04/01 09:37:34;;;;;;;;;3.00;1.00;;;;;20.02;39.77;100137.41;5057844;28;45460;-72
2023/04/01 09:40:09;;;;;;;;;1.75;1.00;;;;;19.79;39.07;100132.63;5038563;28;45293;-70
2023/04/01 09:42:42;;;;;;;;;1.00;1.00;;;;;19.62;39.01;100121.56;5058162;28;45250;-75
2023/04/01 09:45:23;;;;;;;;;1.00;0.75;;;;;20.12;39.26;100140.44;5038888;28;47764;-73
2023/04/01 09:48:08;;;;;;;;;1.25;1.00;;;;;19.80;38.51;100082.19;5057957;28;45443;-71
2023/04/01 09:50:40;;;;;;;;;2.25;0.00;;;;;20.29;38.62;100143.41;5038872;28;45418;-71
2023/04/01 09:53:19;;;;;;;;;0.00;0.00;;;;;20.19;38.12;100153.88;5056307;28;45424;-71
2023/04/01 09:55:53;;;;;;;;;0.00;0.00;;;;;19.97;38.00;100150.75;5056496;28;46186;-72
2023/04/01 09:58:33;;;;;;;;;1.00;0.75;;;;;19.78;38.48;100154.41;5033706;28;45527;-72
2023/04/01 10:01:04;;;;;;;;;1.25;0.25;;;;;19.45;38.37;100155.44;5039501;28;45309;-72
2023/04/01 10:03:49;;;;;;;;;1.00;1.00;;;;;19.56;38.57;100165.56;5037795;28;45459;-76
2023/04/01 10:06:46;;;;;;;;;0.50;0.50;;;;;19.47;38.61;100139.88;5052366;28;47692;-82
2023/04/01 10:09:21;;;;;;;;;0.50;0.00;;;;;18.88;38.44;100060.19;5038382;28;45239;-78
2023/04/01 10:12:18;;;;;;;;;1.25;0.50;;;;;19.14;38.51;100132.78;5078683;28;45293;-77
2023/04/01 10:15:08;;;;;;;;;1.50;1.00;;;;;19.28;38.44;100151.59;5058744;28;45247;-76
2023/04/01 10:18:06;;;;;;;;;0.25;0.25;;;;;19.20;37.84;100166.13;5058268;28;45528;-79
2023/04/01 10:20:50;;;;;;;;;2.00;2.00;;;;;19.15;38.14;100164.06;5025680;28;45647;-80
2023/04/01 10:23:39;;;;;;;;;1.00;1.00;;;;;19.10;37.92;100133.44;5038562;28;45366;-78
2023/04/01 10:26:27;;;;;;;;;2.00;1.00;;;;;19.25;37.89;100162.81;5036326;28;45156;-81
2023/04/01 10:29:11;;;;;;;;;0.00;0.00;;;;;19.00;38.04;100154.59;5026723;28;46532;-75
2023/04/01 10:31:51;;;;;;;;;2.00;2.00;;;;;18.93;38.12;100143.03;5038957;28;45560;-78
2023/04/01 10:34:34;;;;;;;;;0.00;0.00;;;;;18.89;38.18;100150.72;5038403;28;45235;-79
2023/04/01 10:37:23;;;;;;;;;0.00;0.00;;;;;18.91;38.08;100159.41;5038930;28;45465;-78
2023/04/01 10:40:22;;;;;;;;;3.00;3.00;;;;;18.86;37.54;100151.16;5023237;28;45689;-85
2023/04/01 10:43:00;;;;;;;;;0.00;0.00;;;;;18.72;37.64;100144.13;5048286;28;45321;-79
2023/04/01 10:45:37;;;;;;;;;4.00;4.00;;;;;18.67;38.25;100152.84;5046271;28;45338;-80
2023/04/01 10:48:17;;;;;;;;;0.00;0.00;;;;;18.65;37.84;100154.09;5039124;28;45475;-79
2023/04/01 10:51:01;;;;;;;;;1.00;0.33;;;;;18.52;38.08;100139.59;5040136;28;46251;-80
2023/04/01 10:53:57;;;;;;;;;0.00;0.00;;;;;18.51;38.17;100146.03;5069202;28;45330;-80
2023/04/01 10:56:34;;;;;;;;;3.00;1.67;;;;;18.47;37.87;100133.19;5023235;28;45424;-80
2023/04/01 10:59:45;;;;;;;;;0.33;0.33;;;;;17.57;38.12;99986.78;5030818;28;45311;-81
2023/04/01 11:02:47;;;;;;;;;2.00;1.00;;;;;18.59;37.52;100162.97;5044922;28;45581;-80
2023/04/01 11:05:16;;;;;;;;;1.67;1.00;;;;;18.54;37.07;100142.91;5052973;28;45501;-81
2023/04/01 11:08:03;;;;;;;;;3.67;3.67;;;;;17.50;37.16;99981.41;5039956;28;45307;-81
2023/04/01 11:10:47;;;;;;;;;0.75;0.75;;;;;18.65;36.85;100132.56;5041769;28;45780;-78
2023/04/01 11:13:50;;;;;;;;;1.00;1.00;;;;;18.61;36.26;100144.75;5059278;28;45419;-77
2023/04/01 11:16:31;;;;;;;;;0.00;0.00;;;;;18.47;36.84;100122.44;5041408;28;45535;-76
2023/04/01 11:19:12;;;;;;;;;3.33;1.00;;;;;18.62;36.97;100130.25;5061146;28;45415;-76
2023/04/01 11:22:11;;;;;;;;;4.67;1.33;;;;;18.52;36.78;100128.00;5062637;28;45429;-79
2023/04/01 11:24:51;;;;;;;;;0.00;0.00;;;;;18.47;36.98;100117.88;5037562;28;45710;-78
2023/04/01 11:27:29;;;;;;;;;2.00;1.00;;;;;18.44;37.10;100134.44;5043072;28;45416;-78
2023/04/01 11:29:57;;;;;;;;;0.00;0.00;;;;;18.38;36.75;100129.06;5062418;28;45289;-77
2023/04/01 11:32:41;;;;;;;;;1.50;1.50;;;;;18.53;37.38;100135.03;5045015;28;45397;-74
2023/04/01 11:35:19;;;;;;;;;1.00;1.00;;;;;18.61;37.46;100137.50;5044067;28;46875;-76
2023/04/01 11:38:12;;;;;;;;;3.00;1.33;;;;;18.63;37.85;100123.88;5042484;28;45339;-81
2023/04/01 11:40:56;;;;;;;;;0.00;0.00;;;;;18.61;37.65;100128.59;5059611;28;45352;-79
2023/04/01 11:43:44;;;;;;;;;1.67;1.00;;;;;18.60;38.05;100132.31;5042147;28;45305;-77
2023/04/01 11:46:16;;;;;;;;;3.33;1.00;;;;;18.49;37.53;100142.72;5032121;28;45282;-72
2023/04/01 11:49:13;;;;;;;;;0.33;0.33;;;;;17.56;38.22;100020.06;5064064;28;45530;-76
2023/04/01 11:52:01;;;;;;;;;3.33;2.00;;;;;18.13;38.18;100129.72;5042283;28;45380;-77
2023/04/01 11:54:41;;;;;;;;;3.00;3.00;;;;;17.69;38.53;100060.44;5059689;28;45506;-78
2023/04/01 11:57:33;;;;;;;;;4.00;1.33;;;;;18.18;38.54;100142.53;5043802;28;46665;-76
2023/04/01 12:00:05;;;;;;;;;2.00;2.00;;;;;18.09;38.37;100150.00;5060597;28;45477;-75
2023/04/01 12:03:01;;;;;;;;;7.67;6.67;;;;;18.06;38.61;100146.91;5040830;28;45215;-78
2023/04/01 12:05:42;;;;;;;;;1.33;1.00;;;;;18.10;38.98;100153.50;5042416;28;45581;-77
2023/04/01 12:08:07;;;;;;;;;4.33;4.33;;;;;17.55;38.74;100061.41;5062200;28;45236;-81